Terminal Aerodrome Forecast
Issued by NWS Buffalo, NY

Home | Current Version | Previous Version | Text Only | Print | Product List | Glossary On
Versions: 1 2 3 4 5 6 7 8 9 10 11 12 13 14 15 16 17 18 19 20 21 22 23 24 25 26
000
FTUS41 KBUF 181700
TAFBUF
TAF
KBUF 181732Z 1818/1918 25013KT P6SM BKN110
     FM182300 32009KT P6SM VCSH BKN045
     FM190300 35005KT P6SM BKN030
     FM190400 34005KT P6SM BKN250
     FM190900 28004KT P6SM SCT250
     FM191400 32007KT P6SM FEW250=

USA.gov is the U.S. government's official web portal to all federal, state and local government web resources and services.